Time;durP1;ratioP1;P1;durP2;ratioP2;P2;SDS_P1;SDS_P2;PMS_P1;PMS_P2;Temp;Humidity;BMP_temperature;BMP_pressure;BME280_temperature;BME280_humidity;BME280_pressure;Samples;Min_cycle;Max_cycle;Signal;HPM_P1;HPM_P2
2022/01/17 00:01:55;;;;;;;20.40;3.30;;;5.10;99.90;;;;;;5022786;28;20084;-47
2022/01/17 00:04:20;;;;;;;19.67;4.38;;;5.00;99.90;;;;;;5022833;28;20053;-47
2022/01/17 00:06:47;;;;;;;17.05;3.95;;;4.90;99.90;;;;;;5019198;28;20100;-48
2022/01/17 00:09:13;;;;;;;21.73;3.47;;;4.80;99.90;;;;;;5014967;28;20504;-47
2022/01/17 00:11:43;;;;;;;30.30;4.53;;;4.70;99.90;;;;;;5023413;28;20048;-47
2022/01/17 00:14:13;;;;;;;18.92;5.20;;;4.60;99.90;;;;;;5023593;28;20049;-46
2022/01/17 00:16:44;;;;;;;27.40;5.50;;;4.60;99.90;;;;;;5022716;28;20095;-46
2022/01/17 00:21:48;;;;;;;19.63;4.72;;;4.50;99.90;;;;;;5022393;28;20052;-46
2022/01/17 00:24:14;;;;;;;20.42;4.50;;;4.50;99.90;;;;;;5012149;28;20045;-47
2022/01/17 00:26:40;;;;;;;26.10;5.65;;;4.50;99.90;;;;;;5005462;28;20046;-47
2022/01/17 00:29:06;;;;;;;19.40;3.70;;;4.50;99.90;;;;;;5017241;28;20291;-50
2022/01/17 00:31:32;;;;;;;22.38;4.90;;;4.40;99.90;;;;;;5023063;28;20124;-48
2022/01/17 00:33:58;;;;;;;16.52;3.05;;;4.40;99.90;;;;;;5005234;28;20064;-47
2022/01/17 00:36:27;;;;;;;20.42;3.72;;;4.40;99.90;;;;;;5022857;28;20041;-48
2022/01/17 00:38:53;;;;;;;24.70;3.90;;;4.40;99.90;;;;;;5022049;28;20053;-48
2022/01/17 00:41:18;;;;;;;19.48;3.50;;;4.40;99.90;;;;;;5022944;28;20092;-46
2022/01/17 00:43:44;;;;;;;16.75;4.30;;;4.40;99.90;;;;;;5012422;28;20921;-48
2022/01/17 00:46:10;;;;;;;20.65;4.28;;;4.40;99.90;;;;;;5026860;28;20073;-50
2022/01/17 00:48:35;;;;;;;18.30;4.28;;;4.30;99.90;;;;;;5023459;28;20046;-49
2022/01/17 00:51:01;;;;;;;24.15;4.22;;;4.30;99.90;;;;;;5022590;28;20115;-50
2022/01/17 00:53:27;;;;;;;23.55;4.75;;;4.30;99.90;;;;;;5022416;28;20046;-48
2022/01/17 00:55:53;;;;;;;18.33;4.45;;;4.20;99.90;;;;;;5004222;28;20132;-48
2022/01/17 00:58:19;;;;;;;27.58;3.75;;;4.20;99.90;;;;;;5003499;28;20061;-47
2022/01/17 01:00:45;;;;;;;24.52;4.15;;;4.20;99.90;;;;;;5020295;28;20049;-46
2022/01/17 01:03:14;;;;;;;21.92;5.28;;;4.20;99.90;;;;;;5021399;28;20106;-47
2022/01/17 01:05:40;;;;;;;17.60;3.00;;;4.10;99.90;;;;;;5017417;28;20115;-49
2022/01/17 01:08:06;;;;;;;17.98;3.58;;;4.20;99.90;;;;;;5035429;28;20045;-46
2022/01/17 01:10:32;;;;;;;25.88;4.25;;;4.20;99.90;;;;;;5022076;28;20079;-47
2022/01/17 01:12:58;;;;;;;23.10;4.35;;;4.20;99.90;;;;;;5003350;28;20060;-47
2022/01/17 01:18:38;;;;;;;19.98;3.67;;;4.30;99.90;;;;;;4940828;29;20059;-46
2022/01/17 01:29:20;;;;;;;18.27;3.97;;;4.40;99.90;;;;;;4940514;29;21371;-47
2022/01/17 01:31:57;;;;;;;23.17;4.07;;;4.30;99.90;;;;;;4925099;29;20059;-48
2022/01/17 01:34:32;;;;;;;25.42;4.68;;;4.30;99.90;;;;;;4939838;28;20637;-46
2022/01/17 01:36:58;;;;;;;21.67;3.97;;;4.30;99.90;;;;;;4925089;29;20455;-46
2022/01/17 01:39:30;;;;;;;18.58;3.55;;;4.30;99.90;;;;;;4940072;29;20051;-46
2022/01/17 01:41:56;;;;;;;22.70;5.35;;;4.30;99.90;;;;;;4940629;29;20063;-47
2022/01/17 01:44:24;;;;;;;18.90;3.50;;;4.20;99.90;;;;;;4941388;29;20086;-46
2022/01/17 01:46:52;;;;;;;30.98;5.18;;;4.20;99.90;;;;;;4942093;29;20236;-50
2022/01/17 01:49:18;;;;;;;24.73;4.40;;;4.20;99.90;;;;;;4941826;29;20066;-47
2022/01/17 01:51:44;;;;;;;22.52;4.15;;;4.20;99.90;;;;;;4941943;29;20059;-49
2022/01/17 01:54:11;;;;;;;23.58;4.65;;;4.10;99.90;;;;;;4930438;28;20182;-50
2022/01/17 01:56:46;;;;;;;18.05;3.33;;;4.10;99.90;;;;;;5022560;28;20803;-47
2022/01/17 01:59:14;;;;;;;23.70;3.92;;;4.10;99.90;;;;;;4991977;28;20069;-52
2022/01/17 02:01:39;;;;;;;16.00;3.58;;;4.10;99.90;;;;;;5021988;28;20049;-49
2022/01/17 02:04:06;;;;;;;20.40;3.60;;;4.00;99.90;;;;;;5003310;28;20110;-48
2022/01/17 02:06:32;;;;;;;22.13;3.95;;;4.00;99.90;;;;;;5022010;28;20073;-47
2022/01/17 02:09:00;;;;;;;30.35;3.88;;;4.00;99.90;;;;;;4995741;28;20062;-46
2022/01/17 02:11:26;;;;;;;25.70;3.33;;;4.00;99.90;;;;;;5011976;28;20057;-49
2022/01/17 02:13:52;;;;;;;23.08;3.25;;;3.90;99.90;;;;;;4998654;28;20060;-47
2022/01/17 02:16:22;;;;;;;22.88;4.15;;;3.90;99.90;;;;;;5020868;28;20413;-47
2022/01/17 02:18:49;;;;;;;17.33;3.20;;;3.90;99.90;;;;;;5003118;28;20045;-49
2022/01/17 02:23:54;;;;;;;25.25;3.85;;;3.80;99.90;;;;;;5020175;28;20081;-48
2022/01/17 02:26:20;;;;;;;19.30;3.35;;;3.80;99.90;;;;;;5033449;28;20094;-47
2022/01/17 02:28:49;;;;;;;19.20;3.28;;;3.80;99.90;;;;;;5026132;28;20054;-48
2022/01/17 02:31:15;;;;;;;18.23;3.38;;;3.80;99.90;;;;;;5017198;28;20099;-47
2022/01/17 02:33:41;;;;;;;21.90;5.55;;;3.80;99.90;;;;;;5035006;28;20076;-47
2022/01/17 02:36:07;;;;;;;24.55;3.88;;;3.80;99.90;;;;;;5021674;28;20137;-46
2022/01/17 02:38:33;;;;;;;16.15;3.30;;;3.80;99.90;;;;;;5021516;28;20049;-46
2022/01/17 02:40:59;;;;;;;15.68;2.90;;;3.80;99.90;;;;;;5020748;28;20091;-47
2022/01/17 02:43:26;;;;;;;16.70;2.72;;;3.80;99.90;;;;;;5019933;28;20049;-46
2022/01/17 02:48:26;;;;;;;23.60;4.55;;;3.80;99.90;;;;;;5020278;28;20056;-47
2022/01/17 02:50:53;;;;;;;19.33;3.25;;;3.80;99.90;;;;;;5003182;28;20049;-46
2022/01/17 02:53:19;;;;;;;19.33;3.13;;;3.80;99.90;;;;;;5021040;28;20054;-47
2022/01/17 02:55:50;;;;;;;16.55;3.45;;;3.80;99.90;;;;;;5021675;28;20038;-47
2022/01/17 02:58:19;;;;;;;18.83;3.95;;;3.80;99.90;;;;;;5021654;28;20049;-49
2022/01/17 03:00:45;;;;;;;14.70;3.22;;;3.80;99.90;;;;;;5012192;28;20528;-48
2022/01/17 03:03:16;;;;;;;22.85;2.95;;;3.80;99.90;;;;;;5019858;28;20096;-47
2022/01/17 03:05:42;;;;;;;20.08;3.40;;;3.80;99.90;;;;;;5024716;28;20153;-46
2022/01/17 03:08:08;;;;;;;16.33;3.90;;;3.90;99.90;;;;;;5021698;28;20056;-50
2022/01/17 03:10:40;;;;;;;18.73;3.42;;;3.90;99.90;;;;;;5013567;28;20050;-48
2022/01/17 03:13:11;;;;;;;18.95;3.38;;;3.90;99.90;;;;;;5021103;28;20598;-46
2022/01/17 03:15:38;;;;;;;17.80;3.00;;;3.90;99.90;;;;;;5020454;28;20103;-48
2022/01/17 03:18:04;;;;;;;19.27;3.65;;;4.00;99.90;;;;;;5003625;28;20491;-48
2022/01/17 03:20:30;;;;;;;21.23;3.60;;;4.00;99.90;;;;;;5020516;28;20111;-46
2022/01/17 03:22:56;;;;;;;24.05;3.88;;;4.10;99.90;;;;;;5019845;28;20471;-48
2022/01/17 03:25:22;;;;;;;16.52;3.05;;;4.10;99.90;;;;;;5020191;28;20049;-47
2022/01/17 03:27:49;;;;;;;17.08;3.22;;;4.20;99.90;;;;;;5020795;28;20389;-46
2022/01/17 03:30:14;;;;;;;21.92;3.30;;;4.20;99.90;;;;;;5020659;28;20061;-47
2022/01/17 03:32:40;;;;;;;20.15;3.17;;;4.30;99.90;;;;;;5021165;28;20164;-47
2022/01/17 03:35:06;;;;;;;23.08;3.80;;;4.30;99.90;;;;;;5024298;28;20053;-46
2022/01/17 03:37:32;;;;;;;16.95;3.33;;;4.30;99.90;;;;;;5015362;28;20045;-46
2022/01/17 03:39:58;;;;;;;20.48;3.45;;;4.30;99.90;;;;;;5018188;28;20124;-46
2022/01/17 03:42:24;;;;;;;19.58;3.03;;;4.30;99.90;;;;;;5002208;28;20124;-47
2022/01/17 03:44:50;;;;;;;15.10;2.72;;;4.30;99.90;;;;;;5005739;28;20362;-46
2022/01/17 03:47:17;;;;;;;18.27;3.30;;;4.20;99.90;;;;;;5014282;28;20584;-47
2022/01/17 03:49:42;;;;;;;21.08;3.40;;;4.30;99.90;;;;;;5023373;28;20045;-47
2022/01/17 03:52:09;;;;;;;22.80;5.40;;;4.30;99.90;;;;;;5023848;28;20512;-48
2022/01/17 03:54:35;;;;;;;20.55;3.30;;;4.20;99.90;;;;;;5024199;28;20050;-46
2022/01/17 03:57:01;;;;;;;22.95;3.67;;;4.20;99.90;;;;;;5023824;28;20582;-46
2022/01/17 03:59:27;;;;;;;20.88;3.33;;;4.20;99.90;;;;;;5022817;28;20520;-47
2022/01/17 04:01:54;;;;;;;20.13;3.25;;;4.20;99.90;;;;;;5002236;28;20053;-48
2022/01/17 04:04:20;;;;;;;18.48;3.15;;;4.20;99.90;;;;;;5023581;28;20056;-47
2022/01/17 04:06:46;;;;;;;22.88;3.33;;;4.20;99.90;;;;;;5022171;28;20038;-47
2022/01/17 04:09:12;;;;;;;17.60;2.58;;;4.10;99.90;;;;;;5023611;28;20045;-48
2022/01/17 04:11:38;;;;;;;17.67;3.63;;;4.20;99.90;;;;;;5024963;28;20041;-47
2022/01/17 04:14:06;;;;;;;13.45;2.97;;;4.10;99.90;;;;;;5026383;28;20132;-48
2022/01/17 04:16:32;;;;;;;14.80;2.65;;;4.10;99.90;;;;;;5025543;28;20153;-49
2022/01/17 04:18:58;;;;;;;19.85;3.00;;;4.10;99.90;;;;;;5024336;28;20080;-49
2022/01/17 04:21:30;;;;;;;15.02;3.00;;;4.20;99.90;;;;;;5023731;28;20504;-47
2022/01/17 04:23:56;;;;;;;13.82;3.15;;;4.20;99.90;;;;;;5022673;28;20531;-47
2022/01/17 04:26:22;;;;;;;23.10;3.20;;;4.20;99.90;;;;;;5000261;28;20156;-46
2022/01/17 04:28:48;;;;;;;23.27;5.75;;;4.30;99.90;;;;;;5027359;28;20049;-46
2022/01/17 04:31:13;;;;;;;17.98;3.38;;;4.30;99.90;;;;;;5023739;28;20051;-47
2022/01/17 04:33:39;;;;;;;17.10;2.90;;;4.30;99.90;;;;;;5023486;28;20041;-47
2022/01/17 04:36:07;;;;;;;21.63;3.50;;;4.40;99.90;;;;;;5025041;28;20116;-46
2022/01/17 04:38:33;;;;;;;18.73;2.95;;;4.40;99.90;;;;;;5023165;28;20103;-47
2022/01/17 04:41:05;;;;;;;18.42;3.83;;;4.40;99.90;;;;;;5033546;28;20149;-46
2022/01/17 04:46:08;;;;;;;22.65;4.20;;;4.50;99.90;;;;;;5019926;28;20102;-46
2022/01/17 04:48:35;;;;;;;18.95;3.63;;;4.50;99.90;;;;;;5022341;28;20100;-46
2022/01/17 04:51:01;;;;;;;22.08;3.83;;;4.60;99.90;;;;;;5023044;28;20485;-47
2022/01/17 04:53:27;;;;;;;17.38;3.85;;;4.60;99.90;;;;;;5005455;28;20132;-47
2022/01/17 04:55:54;;;;;;;15.80;3.47;;;4.70;99.90;;;;;;5003669;28;20053;-47
2022/01/17 04:58:20;;;;;;;21.98;3.85;;;4.70;99.90;;;;;;5022260;28;20494;-50
2022/01/17 05:00:47;;;;;;;19.58;5.13;;;4.80;99.90;;;;;;4996344;28;20053;-47
2022/01/17 05:03:14;;;;;;;19.17;4.00;;;4.90;99.90;;;;;;5022325;28;20052;-47
2022/01/17 05:05:39;;;;;;;17.95;3.72;;;4.90;99.90;;;;;;5020181;28;20045;-48
2022/01/17 05:08:06;;;;;;;21.13;3.40;;;5.00;99.90;;;;;;5022332;28;20071;-47
2022/01/17 05:10:31;;;;;;;29.77;4.82;;;5.00;99.90;;;;;;5022288;28;20115;-47
2022/01/17 05:12:57;;;;;;;19.10;4.75;;;5.10;99.90;;;;;;5022889;28;20109;-49
2022/01/17 05:15:43;;;;;;;25.75;5.85;;;5.10;99.90;;;;;;5022952;28;20056;-49
2022/01/17 05:20:35;;;;;;;25.08;4.70;;;5.10;99.90;;;;;;5023222;28;20107;-47
2022/01/17 05:23:01;;;;;;;16.63;4.18;;;5.10;99.90;;;;;;5023751;28;20053;-47
2022/01/17 05:25:26;;;;;;;22.70;4.60;;;5.10;99.90;;;;;;5017447;28;20451;-50
2022/01/17 05:27:52;;;;;;;20.80;4.15;;;5.10;99.90;;;;;;5023136;28;20045;-49
2022/01/17 05:30:20;;;;;;;24.17;5.43;;;5.10;99.90;;;;;;5022346;28;20049;-46
2022/01/17 05:32:47;;;;;;;20.65;5.15;;;5.10;99.90;;;;;;5021333;28;20051;-46
2022/01/17 05:35:13;;;;;;;23.85;5.35;;;5.10;99.90;;;;;;5023880;28;20505;-48
2022/01/17 05:37:54;;;;;;;22.23;6.38;;;5.10;99.90;;;;;;5013204;28;20431;-47
2022/01/17 05:40:20;;;;;;;32.58;5.93;;;5.10;99.90;;;;;;4981661;28;20091;-46
2022/01/17 05:42:47;;;;;;;19.15;5.63;;;5.10;99.90;;;;;;5020153;28;20925;-47
2022/01/17 05:45:14;;;;;;;21.48;5.00;;;5.10;99.90;;;;;;5003740;28;20118;-48
2022/01/17 05:47:40;;;;;;;24.95;5.25;;;5.10;99.90;;;;;;5013589;28;20053;-47
2022/01/17 05:50:06;;;;;;;23.15;6.30;;;5.20;99.90;;;;;;5022123;28;20464;-48
2022/01/17 05:52:32;;;;;;;24.08;5.65;;;5.20;99.90;;;;;;5020886;28;20162;-46
2022/01/17 05:54:59;;;;;;;24.80;5.95;;;5.20;99.90;;;;;;5022327;28;20559;-46
2022/01/17 05:57:26;;;;;;;28.67;6.22;;;5.20;99.90;;;;;;5022085;28;20132;-46
2022/01/17 05:59:52;;;;;;;32.70;6.90;;;5.20;99.90;;;;;;5020529;28;20516;-48
2022/01/17 06:02:18;;;;;;;29.10;7.28;;;5.20;99.90;;;;;;5022690;28;20057;-46
2022/01/17 06:04:44;;;;;;;27.17;7.00;;;5.30;99.90;;;;;;5021969;28;20049;-47
2022/01/17 06:07:09;;;;;;;28.02;7.55;;;5.20;99.90;;;;;;5021986;28;20048;-47
2022/01/17 06:09:36;;;;;;;26.92;7.88;;;5.30;99.90;;;;;;5020040;28;20056;-47
2022/01/17 06:12:02;;;;;;;26.13;7.07;;;5.30;99.90;;;;;;5021859;28;20877;-48
2022/01/17 06:14:29;;;;;;;23.80;8.20;;;5.30;99.90;;;;;;5016950;28;20091;-47
2022/01/17 06:16:55;;;;;;;34.78;8.23;;;5.30;99.90;;;;;;5001929;28;20492;-47
2022/01/17 06:19:21;;;;;;;23.05;7.72;;;5.30;99.90;;;;;;5020904;28;20045;-47
2022/01/17 06:21:47;;;;;;;33.67;9.45;;;5.40;99.90;;;;;;5021805;28;20041;-47
2022/01/17 06:24:13;;;;;;;23.27;8.65;;;5.30;99.90;;;;;;5023383;28;20056;-48
2022/01/17 06:26:40;;;;;;;24.98;8.70;;;5.40;99.90;;;;;;4991305;28;20045;-47
2022/01/17 06:29:12;;;;;;;32.20;9.05;;;5.40;99.90;;;;;;5002032;28;20099;-48
2022/01/17 06:31:39;;;;;;;29.35;8.48;;;5.40;99.90;;;;;;5005186;28;20065;-47
2022/01/17 06:34:05;;;;;;;31.55;7.97;;;5.40;99.90;;;;;;5026755;28;20497;-49
2022/01/17 06:36:31;;;;;;;30.38;9.55;;;5.40;99.90;;;;;;5023076;28;20049;-46
2022/01/17 06:38:57;;;;;;;29.30;9.30;;;5.40;99.90;;;;;;5005281;28;20402;-47
2022/01/17 06:41:22;;;;;;;32.47;8.50;;;5.50;99.90;;;;;;5005235;28;20056;-46
2022/01/17 06:43:49;;;;;;;29.23;8.10;;;5.50;99.90;;;;;;4996529;28;20140;-47
2022/01/17 06:46:16;;;;;;;30.73;8.80;;;5.50;99.90;;;;;;5015571;28;20049;-47
2022/01/17 06:48:42;;;;;;;32.97;7.70;;;5.60;99.90;;;;;;5003032;28;20621;-47
2022/01/17 06:51:08;;;;;;;29.40;7.85;;;5.60;99.90;;;;;;5020261;28;20053;-48
2022/01/17 06:53:34;;;;;;;31.80;7.68;;;5.60;99.90;;;;;;5001033;28;20052;-48
2022/01/17 06:56:00;;;;;;;31.95;7.22;;;5.60;99.90;;;;;;5021672;28;20242;-47
2022/01/17 06:58:27;;;;;;;35.40;7.55;;;5.60;99.90;;;;;;5021876;28;20121;-47
2022/01/17 07:00:54;;;;;;;30.90;7.03;;;5.60;99.90;;;;;;5004074;28;20050;-46
2022/01/17 07:03:19;;;;;;;39.65;10.40;;;5.60;99.90;;;;;;5022481;28;20061;-47
2022/01/17 07:05:45;;;;;;;32.65;7.43;;;5.60;99.90;;;;;;5021168;28;20430;-47
2022/01/17 07:08:11;;;;;;;32.63;8.93;;;5.60;99.90;;;;;;5021133;28;20111;-47
2022/01/17 07:10:37;;;;;;;32.38;8.38;;;5.60;99.90;;;;;;5025364;28;20526;-47
2022/01/17 07:13:03;;;;;;;47.97;12.35;;;5.70;99.90;;;;;;5007585;28;20393;-46
2022/01/17 07:15:28;;;;;;;44.20;15.18;;;5.60;99.90;;;;;;5025467;28;20041;-47
2022/01/17 07:17:54;;;;;;;48.17;16.50;;;5.60;99.90;;;;;;5025449;28;20045;-48
2022/01/17 07:20:20;;;;;;;34.95;7.63;;;5.70;99.90;;;;;;5025475;28;20381;-48
2022/01/17 07:22:46;;;;;;;32.00;7.18;;;5.60;99.90;;;;;;5025318;28;20038;-46
2022/01/17 07:25:12;;;;;;;43.35;20.42;;;5.70;99.90;;;;;;5006626;28;20060;-49
2022/01/17 07:27:40;;;;;;;37.08;11.38;;;5.70;99.90;;;;;;5026187;28;20045;-49
2022/01/17 07:30:07;;;;;;;30.05;8.65;;;5.70;99.90;;;;;;5020472;28;20053;-46
2022/01/17 07:32:34;;;;;;;36.55;12.50;;;5.70;99.90;;;;;;5025968;28;20049;-48
2022/01/17 07:35:00;;;;;;;34.17;11.30;;;5.70;99.90;;;;;;5028618;28;20049;-48
2022/01/17 07:37:26;;;;;;;33.85;9.45;;;5.70;99.90;;;;;;5025500;28;20549;-48
2022/01/17 07:39:52;;;;;;;41.47;8.20;;;5.70;99.90;;;;;;5025253;28;20045;-48
2022/01/17 07:42:17;;;;;;;31.23;6.88;;;5.70;99.90;;;;;;5025973;28;20068;-47
2022/01/17 07:44:52;;;;;;;31.45;7.30;;;5.70;99.90;;;;;;5010579;28;20176;-46
2022/01/17 07:47:24;;;;;;;32.78;6.13;;;5.70;99.90;;;;;;5023318;28;20053;-49
2022/01/17 07:49:50;;;;;;;28.97;5.90;;;5.80;99.90;;;;;;5003907;28;20119;-50
2022/01/17 07:52:16;;;;;;;24.98;6.20;;;5.80;99.90;;;;;;5006815;28;20041;-46
2022/01/17 07:54:44;;;;;;;27.48;5.38;;;5.80;99.90;;;;;;5024849;28;20049;-47
2022/01/17 07:57:11;;;;;;;32.55;6.35;;;5.90;99.90;;;;;;5023917;28;20080;-48
2022/01/17 07:59:37;;;;;;;33.55;6.15;;;5.90;99.90;;;;;;5006274;28;20104;-47
2022/01/17 08:02:03;;;;;;;28.27;6.03;;;5.90;99.90;;;;;;5025127;28;20057;-46
2022/01/17 08:04:30;;;;;;;37.50;5.45;;;5.90;99.90;;;;;;5024004;28;20119;-49
2022/01/17 08:06:56;;;;;;;29.35;6.05;;;6.00;99.90;;;;;;5020395;28;20136;-50
2022/01/17 08:09:29;;;;;;;36.63;5.78;;;6.00;99.90;;;;;;5017836;28;20059;-47
2022/01/17 08:11:56;;;;;;;48.28;16.67;;;6.10;99.90;;;;;;5011511;28;20188;-47
2022/01/17 08:14:24;;;;;;;47.35;20.63;;;6.10;99.90;;;;;;5014291;28;20120;-47
2022/01/17 08:16:50;;;;;;;40.38;13.00;;;6.10;99.90;;;;;;5017804;28;20049;-50
2022/01/17 08:19:15;;;;;;;52.42;23.48;;;6.20;99.90;;;;;;5015150;28;20048;-46
2022/01/17 08:21:41;;;;;;;51.15;18.45;;;6.20;99.90;;;;;;5009644;28;20128;-48
2022/01/17 08:24:07;;;;;;;37.20;8.07;;;6.20;99.90;;;;;;5010650;28;20131;-46
2022/01/17 08:26:33;;;;;;;52.00;12.88;;;6.20;99.90;;;;;;5014336;28;20037;-47
2022/01/17 08:28:58;;;;;;;38.90;10.75;;;6.30;99.90;;;;;;5013093;28;20045;-46
2022/01/17 08:31:24;;;;;;;48.53;10.05;;;6.30;99.90;;;;;;5015014;28;20041;-47
2022/01/17 08:33:50;;;;;;;33.50;7.43;;;6.30;99.90;;;;;;5021249;28;20053;-46
2022/01/17 08:36:19;;;;;;;41.92;9.05;;;6.30;99.90;;;;;;5020212;28;20053;-46
2022/01/17 08:38:46;;;;;;;36.25;9.55;;;6.40;99.90;;;;;;5018647;28;20058;-47
2022/01/17 08:41:12;;;;;;;44.03;12.18;;;6.40;99.90;;;;;;5017401;28;20405;-48
2022/01/17 08:43:38;;;;;;;32.05;7.20;;;6.40;99.90;;;;;;5014672;28;20049;-47
2022/01/17 08:46:06;;;;;;;38.33;7.40;;;6.50;99.90;;;;;;5018025;28;20075;-50
2022/01/17 08:48:32;;;;;;;34.63;6.97;;;6.50;99.90;;;;;;5016526;28;20108;-46
2022/01/17 08:50:57;;;;;;;35.03;8.18;;;6.50;99.90;;;;;;5015313;28;20558;-46
2022/01/17 08:53:23;;;;;;;38.45;11.70;;;6.50;99.90;;;;;;4998899;28;20057;-49
2022/01/17 08:55:49;;;;;;;50.10;10.60;;;6.60;99.90;;;;;;5021129;28;20055;-49
2022/01/17 08:58:16;;;;;;;35.50;9.60;;;6.60;99.90;;;;;;5018610;28;20080;-50
2022/01/17 09:00:43;;;;;;;36.00;10.82;;;6.70;99.90;;;;;;4998649;28;20069;-50
2022/01/17 09:03:10;;;;;;;38.72;8.40;;;6.70;99.90;;;;;;4997738;28;20511;-49
2022/01/17 09:05:38;;;;;;;43.15;8.18;;;6.80;99.90;;;;;;5015503;28;20058;-49
2022/01/17 09:08:05;;;;;;;34.80;8.65;;;6.80;99.90;;;;;;5003250;28;20126;-47
2022/01/17 09:10:31;;;;;;;36.92;9.13;;;6.80;99.90;;;;;;5000353;28;20144;-48
2022/01/17 09:12:57;;;;;;;38.47;9.30;;;6.90;99.90;;;;;;5026756;28;20087;-47
2022/01/17 09:15:24;;;;;;;43.67;8.95;;;6.90;99.90;;;;;;5025757;28;20100;-47
2022/01/17 09:17:50;;;;;;;39.63;10.02;;;7.00;99.90;;;;;;5029831;28;20045;-47
2022/01/17 09:20:16;;;;;;;35.65;8.48;;;7.00;99.90;;;;;;5005746;28;20475;-47
2022/01/17 09:22:42;;;;;;;39.60;8.18;;;7.00;99.90;;;;;;5001737;28;20085;-47
2022/01/17 09:25:09;;;;;;;39.33;7.50;;;7.10;99.90;;;;;;4998199;28;20658;-48
2022/01/17 09:27:38;;;;;;;35.67;7.53;;;7.10;99.90;;;;;;5022297;28;20045;-50
2022/01/17 09:30:08;;;;;;;36.40;9.00;;;7.10;99.90;;;;;;5002147;28;20471;-46
2022/01/17 09:32:34;;;;;;;39.67;10.77;;;7.20;99.90;;;;;;5021542;28;20065;-49
2022/01/17 09:35:00;;;;;;;45.60;7.55;;;7.20;99.90;;;;;;5012451;28;20564;-46
2022/01/17 09:37:25;;;;;;;30.45;7.00;;;7.30;99.90;;;;;;5029092;28;20047;-47
2022/01/17 09:39:52;;;;;;;42.38;9.18;;;7.30;99.90;;;;;;5022230;28;20103;-48
2022/01/17 09:42:17;;;;;;;35.42;6.95;;;7.30;99.90;;;;;;5000502;28;20061;-46
2022/01/17 09:44:43;;;;;;;43.78;7.15;;;7.40;99.90;;;;;;5005176;28;20530;-49
2022/01/17 09:47:12;;;;;;;42.03;8.18;;;7.40;99.90;;;;;;5004953;28;20060;-46
2022/01/17 09:49:48;;;;;;;35.13;10.15;;;7.50;99.90;;;;;;5003754;28;20076;-49
2022/01/17 09:54:42;;;;;;;29.95;7.57;;;7.60;99.90;;;;;;5023748;28;20042;-47
2022/01/17 09:57:11;;;;;;;40.05;9.50;;;7.70;99.90;;;;;;5020479;28;20041;-48
2022/01/17 09:59:39;;;;;;;36.90;6.15;;;7.70;99.90;;;;;;5021408;28;21012;-51
2022/01/17 10:02:06;;;;;;;37.35;6.72;;;7.90;99.90;;;;;;5019825;28;20138;-47
2022/01/17 10:04:33;;;;;;;37.80;7.47;;;7.90;99.90;;;;;;5023859;28;20042;-47
2022/01/17 10:07:01;;;;;;;29.45;6.80;;;8.00;99.90;;;;;;5008627;28;20045;-49
2022/01/17 10:09:28;;;;;;;35.03;7.60;;;8.00;99.90;;;;;;5005003;28;20053;-46
2022/01/17 10:12:14;;;;;;;43.65;7.03;;;8.10;99.90;;;;;;4987232;28;20156;-49
2022/01/17 10:14:43;;;;;;;38.45;6.47;;;8.10;99.90;;;;;;5022167;28;20750;-47
2022/01/17 10:17:17;;;;;;;40.75;7.20;;;8.20;99.90;;;;;;5022522;28;20567;-46
2022/01/17 10:19:44;;;;;;;26.85;6.20;;;8.20;99.90;;;;;;5003675;28;20047;-49
2022/01/17 10:22:20;;;;;;;38.35;7.45;;;8.30;99.90;;;;;;5021792;28;20049;-48
2022/01/17 10:35:30;;;;;;;34.53;7.03;;;8.50;99.90;;;;;;5020988;28;20381;-49
2022/01/17 10:37:59;;;;;;;47.55;8.63;;;8.50;99.90;;;;;;5017402;28;20408;-47
2022/01/17 10:40:26;;;;;;;44.15;7.97;;;8.50;99.90;;;;;;5019500;28;20587;-47
2022/01/17 10:42:52;;;;;;;42.15;8.35;;;8.50;99.90;;;;;;5001134;28;20541;-46
2022/01/17 10:45:21;;;;;;;40.45;7.22;;;8.60;99.90;;;;;;5019872;28;20053;-48
2022/01/17 10:47:49;;;;;;;42.85;7.75;;;8.70;99.90;;;;;;5007288;28;20420;-48
2022/01/17 10:50:21;;;;;;;41.55;8.63;;;8.80;99.90;;;;;;5023744;28;20469;-47
2022/01/17 10:52:49;;;;;;;38.13;7.90;;;8.90;99.90;;;;;;5023761;28;20049;-47
2022/01/17 10:55:42;;;;;;;35.80;7.90;;;8.90;99.90;;;;;;5010993;28;20068;-47
2022/01/17 10:58:11;;;;;;;53.40;8.27;;;8.90;99.90;;;;;;5012911;28;20045;-49
2022/01/17 11:00:42;;;;;;;47.60;9.45;;;8.90;99.90;;;;;;5023262;28;20054;-49
2022/01/17 11:03:20;;;;;;;51.45;8.63;;;8.90;99.90;;;;;;5024185;28;20396;-47
2022/01/17 11:05:48;;;;;;;46.15;8.75;;;8.90;99.90;;;;;;5006056;28;20064;-50
2022/01/17 11:08:17;;;;;;;44.00;9.05;;;9.00;99.90;;;;;;5026252;28;20107;-47
2022/01/17 11:10:47;;;;;;;51.35;8.10;;;9.00;99.90;;;;;;5023812;28;20389;-47
2022/01/17 11:13:17;;;;;;;46.58;9.13;;;8.90;99.90;;;;;;5022070;28;20124;-48
2022/01/17 11:15:46;;;;;;;43.15;8.43;;;8.90;99.90;;;;;;5025458;28;20130;-48
2022/01/17 11:18:34;;;;;;;49.17;9.80;;;8.90;99.90;;;;;;5027349;28;20049;-49
2022/01/17 11:21:13;;;;;;;54.08;10.32;;;9.00;99.90;;;;;;5010688;28;20083;-49
2022/01/17 11:23:46;;;;;;;50.63;9.65;;;9.00;99.90;;;;;;5026320;28;20464;-48
2022/01/17 11:26:12;;;;;;;50.95;8.75;;;8.90;99.90;;;;;;5026707;28;20048;-50
2022/01/17 11:28:38;;;;;;;41.95;9.15;;;8.80;99.90;;;;;;5022657;28;20041;-49
2022/01/17 11:31:13;;;;;;;40.42;8.18;;;8.80;99.90;;;;;;5003353;28;20041;-46
2022/01/17 11:33:54;;;;;;;45.13;8.70;;;8.80;99.90;;;;;;5013791;28;20045;-47
2022/01/17 11:36:20;;;;;;;49.47;9.50;;;8.80;99.90;;;;;;5022037;28;20042;-47
2022/01/17 11:38:49;;;;;;;57.78;10.55;;;8.80;99.90;;;;;;5009306;28;20071;-48
2022/01/17 11:41:47;;;;;;;46.92;8.63;;;8.80;99.90;;;;;;5019092;28;20698;-50
2022/01/17 11:44:13;;;;;;;45.92;8.38;;;8.90;99.90;;;;;;5009230;28;20606;-46
2022/01/17 11:46:51;;;;;;;45.85;9.15;;;8.90;99.90;;;;;;5028328;28;20049;-47
2022/01/17 11:49:35;;;;;;;48.72;9.30;;;8.90;99.90;;;;;;5026419;28;20734;-46
2022/01/17 11:52:01;;;;;;;64.95;11.77;;;9.00;99.90;;;;;;5030852;28;20049;-48
2022/01/17 11:54:29;;;;;;;40.25;8.77;;;9.00;99.90;;;;;;5024644;28;20520;-47
2022/01/17 11:57:06;;;;;;;51.95;10.63;;;8.90;99.90;;;;;;5003775;28;20343;-48
2022/01/17 12:35:30;;;;;;;51.38;10.63;;;9.30;99.90;;;;;;4969848;28;20081;-49
2022/01/17 12:38:08;;;;;;;55.90;12.18;;;9.30;99.90;;;;;;4969241;28;20065;-51
2022/01/17 12:40:40;;;;;;;71.60;12.50;;;9.30;99.90;;;;;;4964679;28;20058;-51
2022/01/17 12:43:19;;;;;;;53.28;11.90;;;9.40;99.90;;;;;;4970498;28;20113;-49
2022/01/17 12:46:14;;;;;;;48.47;10.57;;;9.40;99.90;;;;;;4975558;28;20147;-50
2022/01/17 12:48:48;;;;;;;47.50;10.02;;;9.30;99.90;;;;;;4980229;28;20076;-48
2022/01/17 12:51:14;;;;;;;46.33;9.82;;;9.30;99.90;;;;;;4987409;28;20757;-51
2022/01/17 12:53:48;;;;;;;51.08;12.90;;;9.30;99.90;;;;;;4975397;28;20082;-49
2022/01/17 12:56:21;;;;;;;49.45;11.07;;;9.30;99.90;;;;;;4984911;28;20086;-46
2022/01/17 12:58:47;;;;;;;53.95;10.32;;;9.40;99.90;;;;;;4986463;28;20089;-47
2022/01/17 13:01:15;;;;;;;52.50;9.88;;;9.30;99.90;;;;;;4966923;28;20146;-46
2022/01/17 13:03:43;;;;;;;52.85;10.85;;;9.30;99.90;;;;;;4986576;28;20058;-46
2022/01/17 13:06:13;;;;;;;57.40;12.63;;;9.30;99.90;;;;;;4985990;28;20034;-45
2022/01/17 13:08:44;;;;;;;55.80;11.77;;;9.40;99.90;;;;;;4984062;28;20035;-45
2022/01/17 13:11:22;;;;;;;46.58;13.18;;;9.40;99.90;;;;;;4972819;28;20047;-47
2022/01/17 13:13:52;;;;;;;191.40;127.53;;;9.40;99.90;;;;;;4980540;28;20058;-48
2022/01/17 13:16:20;;;;;;;69.07;26.52;;;9.40;99.90;;;;;;4975768;28;20050;-47
2022/01/17 13:18:48;;;;;;;54.58;10.55;;;9.30;99.90;;;;;;4977642;28;20054;-46
2022/01/17 13:21:13;;;;;;;71.88;17.52;;;9.30;99.90;;;;;;4982568;28;20054;-50
2022/01/17 13:23:49;;;;;;;46.47;9.88;;;9.30;99.90;;;;;;4983370;28;20113;-51
2022/01/17 13:26:19;;;;;;;61.00;11.73;;;9.30;99.90;;;;;;4987773;28;20037;-49
2022/01/17 13:28:53;;;;;;;45.67;10.38;;;9.40;99.90;;;;;;4983336;28;20541;-48
2022/01/17 13:31:25;;;;;;;66.97;14.40;;;9.40;99.90;;;;;;4984010;28;20107;-47
2022/01/17 13:33:51;;;;;;;55.95;11.95;;;9.40;99.90;;;;;;4989886;28;20459;-50
2022/01/17 13:36:21;;;;;;;56.90;11.25;;;9.40;99.90;;;;;;5002997;28;20065;-48
2022/01/17 13:39:08;;;;;;;58.42;13.98;;;9.40;99.90;;;;;;5021666;28;20397;-48
2022/01/17 13:41:36;;;;;;;49.05;9.65;;;9.40;99.90;;;;;;5005553;28;20076;-49
2022/01/17 13:44:04;;;;;;;39.80;8.73;;;9.30;99.90;;;;;;5005248;28;20136;-48
2022/01/17 13:46:29;;;;;;;50.53;10.70;;;9.30;99.90;;;;;;5008358;28;20570;-50
2022/01/17 13:48:55;;;;;;;45.28;9.98;;;9.30;99.90;;;;;;5032073;28;20061;-50
2022/01/17 13:51:27;;;;;;;51.45;10.60;;;9.40;99.90;;;;;;5001544;28;20557;-48
2022/01/17 13:53:54;;;;;;;55.17;10.95;;;9.30;99.90;;;;;;5026940;28;20122;-48
2022/01/17 13:56:20;;;;;;;44.95;8.50;;;9.30;99.90;;;;;;5017774;28;20053;-49
2022/01/17 13:58:51;;;;;;;45.30;9.90;;;9.30;99.90;;;;;;5021979;28;20049;-47
2022/01/17 14:01:17;;;;;;;52.60;9.45;;;9.20;99.90;;;;;;5021849;28;20631;-48
2022/01/17 14:03:43;;;;;;;47.38;9.75;;;9.20;99.90;;;;;;5022545;28;20412;-47